createdAt,value
2022-09-24T00:02:18.171Z,16.60
2022-09-24T00:04:46.414Z,16.60
2022-09-24T00:07:14.653Z,16.70
2022-09-24T00:09:43.157Z,16.70
2022-09-24T00:12:13.232Z,16.70
2022-09-24T00:14:41.758Z,16.80
2022-09-24T00:17:09.997Z,17.00
2022-09-24T00:19:38.299Z,17.00
2022-09-24T00:22:06.749Z,17.00
2022-09-24T00:24:52.658Z,16.90
2022-09-24T00:27:22.608Z,16.80
2022-09-24T00:29:50.781Z,16.80
2022-09-24T00:32:19.057Z,16.40
2022-09-24T00:34:47.797Z,16.50
2022-09-24T00:37:16.501Z,16.40
2022-09-24T00:39:45.826Z,16.30
2022-09-24T00:42:14.215Z,16.30
2022-09-24T00:44:55.481Z,16.10
2022-09-24T00:47:33.884Z,16.10
2022-09-24T00:50:17.083Z,16.20
2022-09-24T00:52:49.711Z,16.00
2022-09-24T00:55:19.989Z,16.10
2022-09-24T00:57:50.127Z,16.20
2022-09-24T01:00:20.284Z,16.10
2022-09-24T01:02:50.772Z,16.10
2022-09-24T01:05:19.535Z,16.20
2022-09-24T01:07:49.042Z,16.20
2022-09-24T01:10:38.334Z,16.30
2022-09-24T01:13:18.285Z,16.20
2022-09-24T01:15:53.823Z,16.50
2022-09-24T01:18:30.677Z,16.30
2022-09-24T01:21:20.007Z,16.10
2022-09-24T01:24:11.621Z,16.10
2022-09-24T01:26:56.732Z,15.80
2022-09-24T01:29:41.893Z,15.80
2022-09-24T01:32:18.383Z,15.90
2022-09-24T01:34:51.461Z,16.00
2022-09-24T01:37:23.404Z,15.80
2022-09-24T01:39:54.754Z,15.70
2022-09-24T01:42:25.123Z,15.80
2022-09-24T01:44:58.311Z,15.90
2022-09-24T01:47:34.963Z,16.10
2022-09-24T01:50:04.769Z,15.90
2022-09-24T01:52:37.857Z,15.70
2022-09-24T01:55:08.865Z,15.60
2022-09-24T01:57:42.772Z,15.60
2022-09-24T02:00:15.052Z,15.50
2022-09-24T02:02:47.182Z,15.50
2022-09-24T02:05:24.104Z,15.40
2022-09-24T02:07:58.241Z,15.60
2022-09-24T02:10:29.503Z,15.70
2022-09-24T02:13:04.145Z,15.60
2022-09-24T02:15:35.677Z,15.50
2022-09-24T02:18:08.556Z,15.40
2022-09-24T02:20:39.574Z,15.30
2022-09-24T02:23:11.880Z,15.30
2022-09-24T02:25:47.296Z,15.40
2022-09-24T02:28:15.804Z,15.40
2022-09-24T02:30:50.900Z,15.40
2022-09-24T02:33:39.163Z,15.40
2022-09-24T02:36:08.494Z,15.40
2022-09-24T02:38:37.219Z,15.40
2022-09-24T02:41:08.103Z,15.20
2022-09-24T02:43:36.456Z,15.20
2022-09-24T02:46:06.201Z,15.10
2022-09-24T02:48:34.707Z,15.10
2022-09-24T02:51:04.165Z,15.10
2022-09-24T02:53:32.796Z,15.00
2022-09-24T02:56:01.591Z,15.00
2022-09-24T02:58:30.636Z,15.00
2022-09-24T03:00:59.020Z,15.00
2022-09-24T03:03:28.523Z,15.10
2022-09-24T03:05:57.416Z,15.40
2022-09-24T03:08:26.192Z,15.30
2022-09-24T03:10:56.243Z,15.30
2022-09-24T03:13:24.983Z,15.30
2022-09-24T03:15:53.652Z,15.40
2022-09-24T03:18:22.059Z,15.50
2022-09-24T03:20:58.017Z,15.40
2022-09-24T03:23:26.429Z,15.30
2022-09-24T03:25:54.784Z,15.30
2022-09-24T03:28:23.535Z,15.20
2022-09-24T03:31:03.609Z,15.10
2022-09-24T03:33:33.595Z,15.00
2022-09-24T03:36:06.060Z,15.10
2022-09-24T03:38:34.603Z,15.10
2022-09-24T03:41:03.295Z,15.10
2022-09-24T03:43:31.783Z,15.20
2022-09-24T03:46:00.720Z,15.30
2022-09-24T03:48:29.873Z,15.20
2022-09-24T03:50:58.103Z,15.00
2022-09-24T03:53:27.722Z,15.00
2022-09-24T03:55:57.934Z,14.90
2022-09-24T03:58:26.783Z,14.90
2022-09-24T04:00:55.798Z,14.90
2022-09-24T04:03:24.388Z,14.90
2022-09-24T04:05:52.892Z,15.10
2022-09-24T04:08:21.709Z,15.10
2022-09-24T04:10:52.215Z,15.00
2022-09-24T04:13:21.241Z,15.10
2022-09-24T04:15:50.333Z,14.90
2022-09-24T04:18:19.124Z,14.80
2022-09-24T04:20:47.978Z,14.80
2022-09-24T04:23:16.612Z,14.80
2022-09-24T04:25:45.654Z,14.80
2022-09-24T04:28:15.396Z,14.80
2022-09-24T04:30:43.677Z,15.10
2022-09-24T04:33:12.718Z,15.30
2022-09-24T04:35:42.962Z,15.20
2022-09-24T04:38:11.357Z,15.10
2022-09-24T04:40:40.057Z,15.10
2022-09-24T04:43:08.493Z,14.90
2022-09-24T04:45:39.930Z,14.90
2022-09-24T04:48:08.345Z,14.90
2022-09-24T04:50:37.692Z,14.90
2022-09-24T04:53:06.651Z,14.90
2022-09-24T04:55:35.465Z,14.80
2022-09-24T04:58:03.816Z,14.90
2022-09-24T05:00:33.540Z,14.90
2022-09-24T05:03:04.619Z,14.90
2022-09-24T05:05:33.447Z,14.80
2022-09-24T05:08:02.560Z,14.80
2022-09-24T05:10:33.367Z,14.80
2022-09-24T05:13:02.247Z,14.70
2022-09-24T05:15:30.583Z,14.70
2022-09-24T05:17:58.854Z,14.70
2022-09-24T05:20:28.470Z,14.70
2022-09-24T05:22:56.822Z,14.70
2022-09-24T05:25:25.071Z,14.70
2022-09-24T05:27:54.190Z,14.70
2022-09-24T05:30:23.640Z,14.70
2022-09-24T05:32:52.996Z,14.70
2022-09-24T05:35:21.821Z,14.80
2022-09-24T05:37:53.403Z,14.80
2022-09-24T05:40:48.295Z,14.90
2022-09-24T05:43:17.397Z,14.80
2022-09-24T05:45:46.495Z,14.80
2022-09-24T05:48:14.743Z,14.80
2022-09-24T05:50:43.018Z,14.80
2022-09-24T05:53:12.961Z,14.80
2022-09-24T05:55:41.351Z,14.80
2022-09-24T05:58:11.515Z,14.80
2022-09-24T06:00:39.855Z,14.80
2022-09-24T06:03:12.254Z,14.90
2022-09-24T06:05:40.779Z,14.90
2022-09-24T06:08:09.025Z,14.80
2022-09-24T06:10:38.840Z,14.80
2022-09-24T06:13:07.785Z,14.80
2022-09-24T06:15:36.136Z,14.80
2022-09-24T06:18:04.546Z,14.80
2022-09-24T06:20:33.503Z,14.70
2022-09-24T06:23:02.401Z,14.70
2022-09-24T06:25:31.241Z,14.60
2022-09-24T06:28:02.768Z,14.70
2022-09-24T06:30:33.096Z,14.80
2022-09-24T06:33:05.325Z,14.80
2022-09-24T06:35:35.740Z,14.80
2022-09-24T06:38:04.143Z,14.80
2022-09-24T06:40:36.596Z,14.90
2022-09-24T06:43:07.930Z,14.90
2022-09-24T06:45:36.561Z,14.90
2022-09-24T06:48:06.685Z,14.90
2022-09-24T06:50:36.057Z,14.80
2022-09-24T06:53:06.732Z,14.90
2022-09-24T06:55:36.016Z,14.90
2022-09-24T06:58:09.170Z,14.90
2022-09-24T07:00:38.752Z,14.90
2022-09-24T07:03:08.059Z,15.00
2022-09-24T07:05:41.070Z,14.90
2022-09-24T07:08:12.068Z,15.00
2022-09-24T07:10:44.138Z,15.00
2022-09-24T07:13:14.688Z,15.00
2022-09-24T07:15:43.469Z,15.10
2022-09-24T07:18:13.134Z,15.20
2022-09-24T07:20:41.475Z,15.30
2022-09-24T07:23:11.400Z,15.40
2022-09-24T07:25:39.926Z,15.50
2022-09-24T07:28:10.863Z,15.60
2022-09-24T07:30:41.060Z,15.60
2022-09-24T07:33:09.737Z,15.70
2022-09-24T07:35:39.427Z,15.70
2022-09-24T07:38:09.010Z,15.70
2022-09-24T07:40:40.442Z,15.80
2022-09-24T07:43:13.710Z,15.80
2022-09-24T07:45:45.258Z,15.80
2022-09-24T07:48:15.775Z,15.80
2022-09-24T07:50:44.327Z,15.80
2022-09-24T07:53:13.422Z,15.90
2022-09-24T07:55:41.966Z,15.90
2022-09-24T07:58:13.544Z,15.90
2022-09-24T08:00:43.076Z,16.00
2022-09-24T08:03:11.457Z,16.00
2022-09-24T08:05:45.442Z,16.00
2022-09-24T08:08:14.190Z,16.00
2022-09-24T08:10:42.988Z,16.00
2022-09-24T08:13:11.421Z,16.00
2022-09-24T08:15:39.973Z,16.00
2022-09-24T08:18:10.001Z,16.00
2022-09-24T08:20:39.920Z,16.00
2022-09-24T08:23:11.002Z,16.10
2022-09-24T08:25:39.210Z,16.20
2022-09-24T08:28:08.965Z,16.20
2022-09-24T08:30:37.406Z,16.30
2022-09-24T08:33:06.638Z,16.30
2022-09-24T08:35:36.831Z,16.30
2022-09-24T08:38:05.095Z,16.30
2022-09-24T08:40:39.441Z,16.30
2022-09-24T08:43:17.358Z,16.40
2022-09-24T08:46:11.688Z,16.30
2022-09-24T08:48:45.504Z,16.30
2022-09-24T08:51:18.000Z,16.30
2022-09-24T08:53:51.682Z,16.30
2022-09-24T08:56:24.831Z,16.40
2022-09-24T08:58:58.342Z,16.40
2022-09-24T09:01:34.383Z,16.40
2022-09-24T09:04:08.342Z,16.40
2022-09-24T09:07:05.852Z,16.40
2022-09-24T09:09:43.155Z,16.40
2022-09-24T09:12:16.519Z,16.50
2022-09-24T09:14:50.315Z,16.50
2022-09-24T09:17:28.605Z,16.50
2022-09-24T09:19:57.859Z,16.50
2022-09-24T09:22:31.711Z,16.50
2022-09-24T09:25:04.643Z,16.50
2022-09-24T09:27:33.114Z,16.50
2022-09-24T09:30:10.408Z,16.60
2022-09-24T09:33:00.559Z,16.60
2022-09-24T09:35:38.163Z,16.60
2022-09-24T09:38:17.706Z,16.60
2022-09-24T09:40:53.914Z,16.60
2022-09-24T09:43:22.313Z,16.60
2022-09-24T09:46:02.719Z,16.60
2022-09-24T09:48:39.391Z,16.60
2022-09-24T09:51:13.765Z,16.60
2022-09-24T09:53:54.494Z,16.50
2022-09-24T09:56:25.983Z,16.60
2022-09-24T09:59:04.103Z,16.60
2022-09-24T10:01:34.705Z,16.70
2022-09-24T10:04:04.950Z,16.70
2022-09-24T10:06:34.895Z,16.70
2022-09-24T10:09:14.846Z,16.80
2022-09-24T10:11:43.250Z,16.80
2022-09-24T10:14:13.899Z,16.80
2022-09-24T10:16:44.947Z,16.80
2022-09-24T10:19:18.878Z,16.80
2022-09-24T10:21:47.372Z,16.80
2022-09-24T10:24:21.380Z,16.80
2022-09-24T10:26:52.402Z,16.90
2022-09-24T10:29:41.328Z,17.00
2022-09-24T10:32:18.041Z,17.00
2022-09-24T10:34:57.208Z,17.10
2022-09-24T10:37:26.105Z,17.00
2022-09-24T10:40:03.310Z,17.00
2022-09-24T10:42:32.322Z,17.10
2022-09-24T10:45:02.581Z,17.10
2022-09-24T10:47:38.107Z,17.20
2022-09-24T10:50:28.610Z,17.30
2022-09-24T10:53:01.920Z,17.40
2022-09-24T10:55:39.152Z,17.40
2022-09-24T10:58:18.762Z,17.50
2022-09-24T11:00:54.653Z,17.50
2022-09-24T11:03:36.385Z,17.50
2022-09-24T11:06:18.167Z,17.40
2022-09-24T11:09:07.002Z,17.50
2022-09-24T11:11:49.517Z,17.60
2022-09-24T11:14:33.103Z,17.60
2022-09-24T11:17:18.903Z,17.60
2022-09-24T11:20:17.562Z,17.60
2022-09-24T11:23:13.905Z,17.60
2022-09-24T11:25:50.889Z,17.60
2022-09-24T11:28:44.809Z,17.60
2022-09-24T11:31:20.626Z,17.70
2022-09-24T11:34:05.003Z,17.70
2022-09-24T11:36:57.595Z,17.70
2022-09-24T11:39:41.214Z,17.60
2022-09-24T11:42:22.382Z,17.80
2022-09-24T11:45:20.864Z,17.80
2022-09-24T11:48:08.796Z,17.80
2022-09-24T11:50:48.086Z,17.80
2022-09-24T11:53:24.422Z,17.80
2022-09-24T11:55:58.085Z,17.90
2022-09-24T11:58:30.259Z,18.00
2022-09-24T12:01:06.919Z,18.00
2022-09-24T12:03:42.258Z,18.10
2022-09-24T12:06:14.660Z,18.20
2022-09-24T12:08:48.371Z,18.30
2022-09-24T12:11:22.191Z,18.30
2022-09-24T12:13:55.552Z,18.30
2022-09-24T12:16:28.394Z,18.10
2022-09-24T12:19:00.822Z,18.20
2022-09-24T12:21:33.519Z,18.20
2022-09-24T12:24:06.357Z,18.30
2022-09-24T12:26:38.846Z,18.30
2022-09-24T12:29:45.948Z,18.20
2022-09-24T12:32:47.948Z,18.30
2022-09-24T12:35:26.610Z,18.30
2022-09-24T12:38:01.032Z,18.20
2022-09-24T12:40:52.593Z,18.20
2022-09-24T12:43:26.253Z,18.20
2022-09-24T12:46:02.046Z,18.10
2022-09-24T12:48:35.805Z,18.20
2022-09-24T12:51:05.830Z,18.20
2022-09-24T12:53:36.807Z,18.20
2022-09-24T12:56:07.191Z,18.20
2022-09-24T12:58:39.180Z,18.20
2022-09-24T13:01:12.534Z,18.20
2022-09-24T13:03:47.273Z,18.10
2022-09-24T13:06:32.504Z,18.10
2022-09-24T13:09:01.202Z,18.10
2022-09-24T13:11:31.685Z,18.10
2022-09-24T13:14:18.623Z,18.10
2022-09-24T13:16:50.090Z,18.20
2022-09-24T13:19:35.080Z,18.20
2022-09-24T13:22:03.834Z,18.30
2022-09-24T13:24:46.844Z,18.30
2022-09-24T13:27:23.522Z,18.40
2022-09-24T13:30:04.800Z,18.30
2022-09-24T13:32:37.813Z,18.30
2022-09-24T13:35:11.968Z,18.30
2022-09-24T13:37:44.415Z,18.40
2022-09-24T13:40:21.291Z,18.30
2022-09-24T13:42:56.783Z,18.30
2022-09-24T13:45:26.129Z,18.40
2022-09-24T13:47:58.300Z,18.40
2022-09-24T13:50:32.453Z,18.40
2022-09-24T13:53:04.639Z,18.30
2022-09-24T13:55:35.597Z,18.30
2022-09-24T13:58:03.754Z,18.30
2022-09-24T14:00:33.170Z,18.30
2022-09-24T14:03:03.913Z,18.40
2022-09-24T14:05:38.175Z,18.30
2022-09-24T14:08:09.721Z,18.30
2022-09-24T14:10:39.985Z,18.40
2022-09-24T14:13:17.618Z,18.40
2022-09-24T14:15:56.820Z,18.30
2022-09-24T14:18:26.520Z,18.50
2022-09-24T14:21:04.117Z,18.50
2022-09-24T14:23:37.351Z,18.50
2022-09-24T14:26:07.195Z,18.40
2022-09-24T14:28:36.003Z,18.50
2022-09-24T14:31:09.170Z,18.40
2022-09-24T14:33:40.922Z,18.30
2022-09-24T14:36:12.568Z,18.20
2022-09-24T14:38:53.535Z,18.20
2022-09-24T14:41:24.942Z,18.20
2022-09-24T14:43:56.236Z,18.10
2022-09-24T14:46:27.753Z,18.10
2022-09-24T14:49:06.648Z,18.10
2022-09-24T14:51:37.407Z,18.10
2022-09-24T14:54:21.491Z,18.10
2022-09-24T14:56:50.145Z,18.20
2022-09-24T14:59:29.508Z,18.20
2022-09-24T15:02:10.934Z,18.20
2022-09-24T15:04:39.357Z,18.30
2022-09-24T15:07:17.858Z,18.30
2022-09-24T15:09:51.473Z,18.40
2022-09-24T15:12:22.473Z,18.20
2022-09-24T15:14:58.708Z,18.30
2022-09-24T15:17:31.805Z,18.30
2022-09-24T15:20:00.178Z,18.30
2022-09-24T15:22:31.315Z,18.10
2022-09-24T15:25:02.254Z,18.20
2022-09-24T15:27:32.429Z,18.20
2022-09-24T15:30:02.238Z,18.20
2022-09-24T15:32:33.756Z,18.20
2022-09-24T15:35:07.564Z,18.30
2022-09-24T15:37:40.060Z,18.10
2022-09-24T15:40:10.527Z,18.10
2022-09-24T15:42:38.948Z,18.10
2022-09-24T15:45:16.489Z,18.10
2022-09-24T15:47:44.948Z,18.10
2022-09-24T15:50:13.671Z,18.20
2022-09-24T15:52:49.040Z,18.10
2022-09-24T15:55:19.118Z,18.10
2022-09-24T15:57:47.842Z,18.10
2022-09-24T16:00:18.389Z,18.20
2022-09-24T16:02:50.006Z,18.20
2022-09-24T16:05:18.756Z,18.10
2022-09-24T16:07:49.155Z,18.00
2022-09-24T16:10:18.166Z,18.10
2022-09-24T16:12:46.512Z,18.10
2022-09-24T16:15:16.715Z,18.00
2022-09-24T16:17:45.617Z,17.90
2022-09-24T16:20:13.862Z,17.90
2022-09-24T16:22:42.181Z,17.90
2022-09-24T16:25:11.790Z,18.00
2022-09-24T16:27:40.948Z,18.00
2022-09-24T16:30:10.086Z,18.00
2022-09-24T16:32:38.458Z,17.90
2022-09-24T16:35:07.429Z,17.90
2022-09-24T16:37:35.903Z,17.90
2022-09-24T16:40:04.723Z,17.90
2022-09-24T16:42:35.211Z,18.00
2022-09-24T16:45:03.531Z,18.00
2022-09-24T16:47:31.959Z,18.10
2022-09-24T16:50:00.314Z,18.00
2022-09-24T16:52:31.509Z,17.90
2022-09-24T16:54:59.822Z,17.80
2022-09-24T16:57:28.438Z,17.80
2022-09-24T16:59:58.149Z,17.90
2022-09-24T17:02:26.555Z,18.00
2022-09-24T17:04:59.391Z,17.90
2022-09-24T17:07:31.826Z,17.90
2022-09-24T17:10:15.861Z,17.90
2022-09-24T17:12:45.915Z,17.90
2022-09-24T17:15:19.298Z,17.70
2022-09-24T17:17:50.147Z,17.70
2022-09-24T17:20:19.524Z,17.60
2022-09-24T17:22:49.817Z,17.60
2022-09-24T17:25:18.243Z,17.70
2022-09-24T17:27:46.806Z,17.70
2022-09-24T17:30:17.188Z,17.80
2022-09-24T17:32:45.484Z,17.70
2022-09-24T17:35:14.944Z,17.70
2022-09-24T17:37:45.158Z,17.60
2022-09-24T17:40:20.089Z,17.60
2022-09-24T17:42:52.666Z,17.70
2022-09-24T17:45:22.619Z,17.60
2022-09-24T17:47:57.377Z,17.50
2022-09-24T17:50:25.747Z,17.60
2022-09-24T17:52:54.152Z,17.50
2022-09-24T17:55:22.418Z,17.40
2022-09-24T17:57:50.562Z,17.40
2022-09-24T18:00:18.815Z,17.40
2022-09-24T18:02:48.386Z,17.40
2022-09-24T18:05:16.799Z,17.40
2022-09-24T18:07:45.351Z,17.40
2022-09-24T18:10:13.789Z,17.50
2022-09-24T18:12:42.049Z,17.40
2022-09-24T18:15:10.664Z,17.20
2022-09-24T18:17:39.159Z,17.30
2022-09-24T18:20:09.584Z,17.30
2022-09-24T18:22:37.831Z,17.30
2022-09-24T18:25:07.302Z,17.30
2022-09-24T18:27:36.373Z,17.40
2022-09-24T18:30:05.732Z,17.40
2022-09-24T18:32:34.785Z,17.40
2022-09-24T18:35:02.992Z,17.40
2022-09-24T18:37:32.646Z,17.40
2022-09-24T18:40:00.966Z,17.40
2022-09-24T18:42:29.234Z,17.40
2022-09-24T18:44:57.545Z,17.30
2022-09-24T18:47:25.893Z,17.10
2022-09-24T18:49:54.236Z,17.10
2022-09-24T18:52:22.722Z,17.10
2022-09-24T18:54:52.290Z,17.00
2022-09-24T18:57:20.766Z,17.00
2022-09-24T18:59:49.046Z,17.00
2022-09-24T19:02:17.571Z,16.80
2022-09-24T19:04:46.213Z,16.80
2022-09-24T19:07:14.916Z,16.90
2022-09-24T19:09:44.593Z,16.90
2022-09-24T19:12:14.275Z,16.80
2022-09-24T19:14:42.733Z,16.80
2022-09-24T19:17:11.123Z,16.70
2022-09-24T19:19:39.485Z,16.70
2022-09-24T19:22:08.027Z,16.70
2022-09-24T19:24:36.190Z,16.70
2022-09-24T19:27:04.648Z,16.60
2022-09-24T19:29:34.281Z,16.70
2022-09-24T19:32:03.110Z,16.70
2022-09-24T19:34:31.542Z,16.70
2022-09-24T19:37:00.076Z,16.80
2022-09-24T19:39:28.510Z,16.70
2022-09-24T19:41:56.871Z,16.70
2022-09-24T19:44:25.378Z,16.70
2022-09-24T19:46:55.390Z,16.80
2022-09-24T19:49:23.928Z,16.80
2022-09-24T19:51:52.379Z,16.70
2022-09-24T19:54:20.743Z,16.70
2022-09-24T19:56:49.157Z,16.60
2022-09-24T19:59:17.520Z,16.60
2022-09-24T20:01:45.951Z,16.60
2022-09-24T20:04:15.833Z,16.60
2022-09-24T20:06:44.115Z,16.60
2022-09-24T20:09:12.325Z,16.60
2022-09-24T20:11:40.607Z,16.60
2022-09-24T20:14:11.459Z,16.60
2022-09-24T20:16:42.761Z,16.50
2022-09-24T20:19:15.570Z,16.40
2022-09-24T20:21:43.894Z,16.30
2022-09-24T20:24:13.590Z,16.30
2022-09-24T20:26:59.967Z,16.20
2022-09-24T20:29:28.624Z,16.20
2022-09-24T20:31:57.037Z,16.10
2022-09-24T20:34:33.720Z,16.10
2022-09-24T20:37:02.859Z,16.00
2022-09-24T20:39:31.907Z,16.00
2022-09-24T20:42:02.140Z,16.00
2022-09-24T20:44:30.768Z,15.90
2022-09-24T20:46:59.368Z,15.90
2022-09-24T20:49:29.927Z,16.00
2022-09-24T20:51:58.497Z,16.00
2022-09-24T20:54:28.251Z,16.00
2022-09-24T20:56:57.113Z,16.00
2022-09-24T20:59:27.373Z,15.90
2022-09-24T21:01:55.918Z,15.90
2022-09-24T21:04:24.480Z,16.00
2022-09-24T21:06:55.108Z,16.00
2022-09-24T21:09:23.810Z,16.00
2022-09-24T21:11:53.113Z,16.00
2022-09-24T21:14:21.798Z,16.00
2022-09-24T21:16:52.467Z,16.00
2022-09-24T21:19:20.721Z,16.00
2022-09-24T21:21:51.262Z,16.00
2022-09-24T21:24:20.974Z,15.90
2022-09-24T21:26:49.229Z,15.90
2022-09-24T21:29:20.694Z,15.90
2022-09-24T21:31:49.377Z,15.90
2022-09-24T21:34:20.881Z,15.80
2022-09-24T21:36:49.475Z,15.70
2022-09-24T21:39:19.374Z,15.70
2022-09-24T21:41:50.235Z,15.70
2022-09-24T21:44:19.542Z,15.60
2022-09-24T21:46:52.157Z,15.50
2022-09-24T21:49:20.854Z,15.50
2022-09-24T21:51:49.068Z,15.40
2022-09-24T21:54:19.009Z,15.40
2022-09-24T21:56:48.973Z,15.30
2022-09-24T21:59:34.887Z,15.30
2022-09-24T22:02:03.814Z,15.30
2022-09-24T22:04:33.170Z,15.30
2022-09-24T22:07:01.642Z,15.30
2022-09-24T22:09:30.245Z,15.20
2022-09-24T22:12:01.122Z,15.20
2022-09-24T22:14:29.366Z,15.10
2022-09-24T22:16:58.387Z,15.00
2022-09-24T22:19:26.736Z,15.10
2022-09-24T22:21:55.256Z,15.00
2022-09-24T22:24:23.486Z,14.90
2022-09-24T22:26:54.038Z,14.90
2022-09-24T22:29:23.832Z,14.80
2022-09-24T22:31:52.107Z,14.80
2022-09-24T22:34:37.513Z,14.80
2022-09-24T22:37:06.921Z,14.80
2022-09-24T22:39:36.068Z,14.80
2022-09-24T22:42:04.523Z,14.90
2022-09-24T22:44:34.245Z,14.90
2022-09-24T22:47:02.763Z,14.90
2022-09-24T22:49:31.795Z,15.00
2022-09-24T22:52:00.233Z,15.10
2022-09-24T22:54:28.504Z,15.10
2022-09-24T22:56:56.925Z,15.00
2022-09-24T22:59:25.193Z,15.00
2022-09-24T23:01:54.799Z,14.90
2022-09-24T23:04:23.751Z,14.90
2022-09-24T23:06:52.327Z,14.80
2022-09-24T23:09:21.093Z,14.70
2022-09-24T23:11:49.551Z,14.70
2022-09-24T23:14:18.103Z,14.60
2022-09-24T23:16:46.740Z,14.70
2022-09-24T23:19:18.492Z,14.70
2022-09-24T23:21:47.043Z,14.60
2022-09-24T23:24:17.019Z,14.50
2022-09-24T23:26:45.537Z,14.50
2022-09-24T23:29:14.358Z,14.50
2022-09-24T23:31:42.805Z,14.50
2022-09-24T23:34:14.359Z,14.40
2022-09-24T23:36:45.135Z,14.50
2022-09-24T23:39:13.975Z,14.60
2022-09-24T23:41:42.503Z,14.60
2022-09-24T23:44:11.326Z,14.50
2022-09-24T23:46:40.049Z,14.40
2022-09-24T23:49:08.243Z,14.40
2022-09-24T23:51:36.658Z,14.40
2022-09-24T23:54:06.764Z,14.40
2022-09-24T23:56:35.293Z,14.50
2022-09-24T23:59:03.539Z,14.40
